Toponas, Colorado
Current Conditions -  °F | °C
As of 7:50 AM on Friday 19 Dec 2014 (Local Time) from KEGE Reporting Station
Light Snow Light Snow  
Wind Chill: 15°   Ceiling: 7000
Heat Index: 21°   Visibility: 10mi
Dew Point: 19°   Wind: 5mph
Humidity: 93%   Direction: 230°SW
Pressure: 30.25"   Gusts: NA
Location:  40.06°N, 106.81°W
Report Text: KEGE 191450Z 23004KT 10SM -SN SCT035 BKN070 M06/M07 A3025
Loading
Personal Weather Stations






























Interactive Weather Map New forecast layout! Learn more

10-Day Weather Forecast

Advertisements
Track Severe Weather on mobile